createdAt,value
2022-10-31T00:01:18.784Z,25.50
2022-10-31T00:03:47.697Z,29.73
2022-10-31T00:06:15.550Z,24.05
2022-10-31T00:08:42.392Z,21.05
2022-10-31T00:11:11.163Z,32.03
2022-10-31T00:13:38.338Z,27.58
2022-10-31T00:16:05.939Z,25.23
2022-10-31T00:18:32.937Z,22.70
2022-10-31T00:21:04.472Z,21.73
2022-10-31T00:23:31.501Z,22.52
2022-10-31T00:26:05.356Z,25.02
2022-10-31T00:28:33.274Z,25.27
2022-10-31T00:31:02.217Z,33.63
2022-10-31T00:33:29.461Z,27.27
2022-10-31T00:35:59.253Z,27.77
2022-10-31T00:38:26.265Z,26.70
2022-10-31T00:40:53.703Z,34.70
2022-10-31T00:43:20.680Z,23.83
2022-10-31T00:45:47.668Z,27.88
2022-10-31T00:48:14.692Z,26.10
2022-10-31T00:50:42.311Z,27.50
2022-10-31T00:53:10.034Z,32.88
2022-10-31T00:55:37.029Z,27.58
2022-10-31T00:58:04.407Z,24.83
2022-10-31T01:00:31.578Z,23.10
2022-10-31T01:02:58.889Z,24.65
2022-10-31T01:05:26.186Z,20.55
2022-10-31T01:07:53.097Z,23.58
2022-10-31T01:10:20.161Z,26.02
2022-10-31T01:12:49.394Z,21.83
2022-10-31T01:15:22.926Z,21.02
2022-10-31T01:17:50.437Z,21.92
2022-10-31T01:20:18.317Z,17.83
2022-10-31T01:22:45.501Z,26.42
2022-10-31T01:25:12.626Z,19.75
2022-10-31T01:27:39.920Z,23.20
2022-10-31T01:30:08.351Z,23.15
2022-10-31T01:32:35.490Z,24.23
2022-10-31T01:35:02.950Z,25.65
2022-10-31T01:37:31.460Z,18.55
2022-10-31T01:39:58.667Z,29.75
2022-10-31T01:42:25.582Z,21.52
2022-10-31T01:44:57.149Z,19.23
2022-10-31T01:47:46.836Z,21.83
2022-10-31T01:50:29.415Z,18.77
2022-10-31T01:52:58.455Z,20.00
2022-10-31T01:55:30.007Z,23.33
2022-10-31T01:58:03.439Z,19.90
2022-10-31T02:00:31.837Z,16.80
2022-10-31T02:03:01.100Z,23.73
2022-10-31T02:05:30.752Z,20.35
2022-10-31T02:08:09.605Z,28.48
2022-10-31T02:10:37.995Z,20.80
2022-10-31T02:13:08.557Z,21.23
2022-10-31T02:15:46.148Z,18.75
2022-10-31T02:18:13.175Z,26.52
2022-10-31T02:20:42.903Z,29.02
2022-10-31T02:23:37.215Z,31.98
2022-10-31T02:26:15.917Z,33.80
2022-10-31T02:29:08.182Z,23.13
2022-10-31T02:32:07.542Z,24.50
2022-10-31T02:34:42.774Z,25.63
2022-10-31T02:37:20.909Z,25.08
2022-10-31T02:40:20.057Z,23.55
2022-10-31T02:43:28.184Z,29.23
2022-10-31T02:46:05.252Z,23.42
2022-10-31T02:48:40.052Z,27.33
2022-10-31T02:51:08.884Z,25.83
2022-10-31T02:53:38.334Z,21.63
2022-10-31T02:56:13.326Z,26.90
2022-10-31T02:58:52.488Z,28.10
2022-10-31T03:01:42.234Z,20.58
2022-10-31T03:04:22.704Z,22.52
2022-10-31T03:07:01.482Z,29.15
2022-10-31T03:09:33.660Z,21.48
2022-10-31T03:12:20.069Z,24.55
2022-10-31T03:14:54.689Z,23.77
2022-10-31T03:17:35.162Z,30.50
2022-10-31T03:20:04.735Z,22.70
2022-10-31T03:22:34.290Z,28.48
2022-10-31T03:25:05.224Z,23.23
2022-10-31T03:27:35.924Z,29.15
2022-10-31T03:30:06.172Z,20.40
2022-10-31T03:33:05.194Z,20.27
2022-10-31T03:35:36.031Z,25.92
2022-10-31T03:38:07.615Z,24.58
2022-10-31T03:40:37.135Z,26.85
2022-10-31T03:43:10.868Z,24.92
2022-10-31T03:45:44.321Z,23.90
2022-10-31T03:48:14.980Z,28.25
2022-10-31T03:51:16.048Z,24.52
2022-10-31T03:53:50.475Z,23.33
2022-10-31T03:56:30.338Z,25.02
2022-10-31T03:59:09.302Z,22.13
2022-10-31T04:01:41.453Z,23.45
2022-10-31T04:04:10.126Z,26.38
2022-10-31T04:06:40.145Z,27.38
2022-10-31T04:09:10.230Z,20.42
2022-10-31T04:11:46.897Z,21.27
2022-10-31T04:14:37.314Z,24.20
2022-10-31T04:17:08.639Z,25.85
2022-10-31T04:19:40.088Z,23.33
2022-10-31T04:22:07.676Z,21.23
2022-10-31T04:24:34.587Z,29.38
2022-10-31T04:27:01.658Z,24.55
2022-10-31T04:29:29.674Z,26.98
2022-10-31T04:31:56.627Z,24.50
2022-10-31T04:34:23.599Z,26.13
2022-10-31T04:36:50.972Z,25.33
2022-10-31T04:39:22.649Z,27.05
2022-10-31T04:42:18.653Z,27.35
2022-10-31T04:44:45.817Z,26.52
2022-10-31T04:47:12.806Z,27.00
2022-10-31T04:49:39.803Z,21.92
2022-10-31T04:52:09.201Z,30.30
2022-10-31T04:54:36.241Z,23.75
2022-10-31T04:57:23.224Z,18.63
2022-10-31T04:59:50.253Z,21.88
2022-10-31T05:02:17.242Z,24.17
2022-10-31T05:04:50.524Z,23.08
2022-10-31T05:07:18.322Z,20.77
2022-10-31T05:09:45.781Z,15.75
2022-10-31T05:12:13.702Z,24.20
2022-10-31T05:15:14.057Z,21.55
2022-10-31T05:18:10.973Z,16.87
2022-10-31T05:21:01.234Z,19.63
2022-10-31T05:23:35.919Z,18.55
2022-10-31T05:26:05.525Z,24.02
2022-10-31T05:28:33.635Z,20.60
2022-10-31T05:31:01.267Z,20.75
2022-10-31T05:33:28.389Z,26.08
2022-10-31T05:36:07.939Z,25.08
2022-10-31T05:39:13.987Z,25.13
2022-10-31T05:41:43.964Z,21.83
2022-10-31T05:44:19.942Z,23.75
2022-10-31T05:47:00.251Z,22.02
2022-10-31T05:49:46.051Z,24.58
2022-10-31T05:52:36.426Z,30.67
2022-10-31T05:55:17.557Z,18.60
2022-10-31T05:58:00.000Z,23.25
2022-10-31T06:00:29.406Z,28.35
2022-10-31T06:03:06.732Z,35.67
2022-10-31T06:05:42.534Z,26.60
2022-10-31T06:08:09.703Z,31.77
2022-10-31T06:10:38.838Z,25.63
2022-10-31T06:13:07.839Z,33.85
2022-10-31T06:15:40.494Z,27.40
2022-10-31T06:18:10.082Z,31.10
2022-10-31T06:20:46.834Z,30.02
2022-10-31T06:23:14.064Z,40.00
2022-10-31T06:25:43.814Z,45.33
2022-10-31T06:28:12.292Z,44.83
2022-10-31T06:31:06.505Z,38.55
2022-10-31T06:33:35.037Z,53.90
2022-10-31T06:36:02.853Z,34.10
2022-10-31T06:38:30.560Z,37.15
2022-10-31T06:40:58.442Z,32.13
2022-10-31T06:43:27.435Z,34.75
2022-10-31T06:46:24.107Z,30.70
2022-10-31T06:49:10.526Z,29.15
2022-10-31T06:51:54.264Z,33.17
2022-10-31T06:54:22.511Z,29.35
2022-10-31T06:56:49.751Z,30.35
2022-10-31T06:59:17.445Z,41.78
2022-10-31T07:07:26.336Z,37.40
2022-10-31T07:09:53.749Z,24.95
2022-10-31T07:12:31.337Z,43.75
2022-10-31T07:14:59.264Z,33.33
2022-10-31T07:17:30.000Z,32.08
2022-10-31T07:20:00.369Z,37.40
2022-10-31T07:22:34.936Z,32.53
2022-10-31T07:25:04.247Z,52.05
2022-10-31T07:28:01.388Z,33.67
2022-10-31T07:30:29.054Z,29.63
2022-10-31T07:32:57.412Z,27.10
2022-10-31T07:35:31.256Z,25.40
2022-10-31T07:38:07.305Z,24.73
2022-10-31T07:40:34.288Z,24.45
2022-10-31T07:43:01.446Z,37.15
2022-10-31T07:46:03.993Z,39.45
2022-10-31T07:48:36.953Z,33.88
2022-10-31T08:25:58.542Z,21.42
2022-10-31T08:28:25.595Z,27.90
2022-10-31T08:30:54.299Z,20.40
2022-10-31T08:33:39.948Z,20.35
2022-10-31T08:36:13.172Z,23.35
2022-10-31T08:38:56.536Z,29.02
2022-10-31T08:41:28.345Z,30.08
2022-10-31T08:43:55.498Z,19.42
2022-10-31T08:46:22.841Z,28.38
2022-10-31T08:48:50.038Z,27.00
2022-10-31T08:51:18.765Z,22.65
2022-10-31T08:53:45.814Z,25.92
2022-10-31T08:56:39.520Z,23.52
2022-10-31T08:59:19.841Z,27.95
2022-10-31T09:02:06.811Z,30.05
2022-10-31T09:04:34.520Z,23.05
2022-10-31T09:07:20.123Z,27.83
2022-10-31T09:09:48.210Z,24.27
2022-10-31T09:12:15.529Z,21.60
2022-10-31T09:15:11.695Z,23.98
2022-10-31T09:17:50.278Z,31.55
2022-10-31T09:20:42.235Z,21.92
2022-10-31T09:23:14.746Z,23.70
2022-10-31T09:25:45.048Z,21.20
2022-10-31T09:28:32.784Z,23.23
2022-10-31T09:31:06.276Z,19.10
2022-10-31T09:34:05.419Z,19.67
2022-10-31T09:36:41.395Z,27.52
2022-10-31T09:39:12.768Z,18.65
2022-10-31T09:41:56.171Z,21.95
2022-10-31T09:44:35.042Z,25.10
2022-10-31T09:47:08.578Z,33.10
2022-10-31T09:49:54.460Z,28.33
2022-10-31T09:52:37.535Z,33.35
2022-10-31T09:55:17.282Z,30.75
2022-10-31T09:57:46.408Z,29.25
2022-10-31T10:00:19.531Z,30.52
2022-10-31T10:03:13.234Z,28.40
2022-10-31T10:06:02.625Z,21.48
2022-10-31T10:08:46.295Z,29.13
2022-10-31T10:11:59.989Z,26.02
2022-10-31T10:14:26.850Z,19.73
2022-10-31T10:17:14.603Z,23.58
2022-10-31T10:20:26.987Z,26.60
2022-10-31T10:23:24.907Z,28.33
2022-10-31T10:28:30.133Z,24.10
2022-10-31T10:31:01.189Z,27.27
2022-10-31T10:33:42.572Z,21.33
2022-10-31T10:36:38.992Z,26.70
2022-10-31T10:39:17.067Z,28.13
2022-10-31T10:41:48.211Z,19.13
2022-10-31T10:44:16.789Z,22.55
2022-10-31T10:47:08.299Z,23.60
2022-10-31T10:49:51.321Z,19.60
2022-10-31T10:52:46.035Z,18.83
2022-10-31T10:55:38.356Z,22.52
2022-10-31T10:58:08.717Z,25.17
2022-10-31T11:00:47.521Z,28.48
2022-10-31T11:03:15.694Z,22.85
2022-10-31T11:05:51.326Z,24.10
2022-10-31T11:08:29.761Z,18.15
2022-10-31T11:11:06.024Z,23.20
2022-10-31T11:13:34.772Z,27.02
2022-10-31T11:16:11.832Z,16.70
2022-10-31T11:18:43.262Z,17.67
2022-10-31T11:21:25.142Z,16.88
2022-10-31T11:24:23.169Z,18.67
2022-10-31T11:26:52.317Z,15.70
2022-10-31T11:29:26.101Z,24.95
2022-10-31T11:31:56.591Z,15.95
2022-10-31T11:34:29.397Z,17.17
2022-10-31T11:37:05.020Z,13.52
2022-10-31T11:39:32.532Z,12.43
2022-10-31T11:42:08.595Z,12.77
2022-10-31T11:44:36.665Z,25.40
2022-10-31T11:47:06.788Z,16.42
2022-10-31T11:49:41.168Z,18.50
2022-10-31T11:52:31.173Z,14.25
2022-10-31T11:55:13.819Z,21.08
2022-10-31T11:57:57.585Z,18.25
2022-10-31T12:03:34.506Z,15.80
2022-10-31T12:06:38.834Z,18.95
2022-10-31T12:09:33.894Z,13.57
2022-10-31T12:12:20.082Z,21.45
2022-10-31T12:15:35.816Z,18.77
2022-10-31T12:18:26.360Z,16.20
2022-10-31T12:21:20.357Z,13.38
2022-10-31T12:24:15.844Z,16.60
2022-10-31T12:26:50.128Z,13.68
2022-10-31T12:29:26.386Z,15.23
2022-10-31T12:32:12.084Z,20.48
2022-10-31T12:35:21.145Z,16.30
2022-10-31T12:37:50.947Z,13.00
2022-10-31T12:40:45.206Z,14.50
2022-10-31T12:43:27.462Z,14.90
2022-10-31T12:46:02.169Z,18.33
2022-10-31T12:48:40.298Z,13.90
2022-10-31T12:51:44.401Z,9.07
2022-10-31T12:54:32.755Z,13.60
2022-10-31T12:57:06.081Z,21.02
2022-10-31T12:59:47.333Z,16.17
2022-10-31T13:02:20.017Z,16.35
2022-10-31T13:04:49.967Z,15.45
2022-10-31T13:07:26.852Z,15.02
2022-10-31T13:10:10.101Z,17.67
2022-10-31T13:12:38.310Z,22.27
2022-10-31T13:15:32.384Z,13.75
2022-10-31T13:18:08.237Z,13.88
2022-10-31T13:20:42.907Z,17.63
2022-10-31T13:26:44.251Z,14.85
2022-10-31T13:29:41.361Z,19.63
2022-10-31T13:32:09.262Z,15.38
2022-10-31T13:34:42.256Z,23.88
2022-10-31T13:37:47.184Z,14.82
2022-10-31T13:40:56.400Z,11.75
2022-10-31T13:43:32.853Z,15.00
2022-10-31T13:46:00.926Z,16.38
2022-10-31T13:48:40.680Z,15.20
2022-10-31T13:51:11.585Z,22.70
2022-10-31T13:54:21.498Z,17.85
2022-10-31T13:56:53.669Z,21.23
2022-10-31T13:59:25.185Z,24.30
2022-10-31T14:02:14.289Z,18.10
2022-10-31T14:05:17.573Z,11.00
2022-10-31T14:07:46.753Z,25.20
2022-10-31T14:10:29.768Z,18.10
2022-10-31T14:13:16.874Z,16.17
2022-10-31T14:15:57.410Z,15.20
2022-10-31T14:18:30.247Z,13.63
2022-10-31T14:20:57.482Z,15.27
2022-10-31T14:23:41.863Z,26.08
2022-10-31T14:26:24.153Z,18.10
2022-10-31T14:28:54.973Z,25.15
2022-10-31T14:31:54.479Z,27.27
2022-10-31T14:34:38.569Z,23.70
2022-10-31T14:37:20.053Z,29.95
2022-10-31T14:39:56.970Z,19.13
2022-10-31T14:42:27.100Z,18.20
2022-10-31T14:45:32.469Z,16.75
2022-10-31T14:48:16.315Z,28.63
2022-10-31T14:50:49.691Z,38.78
2022-10-31T14:53:23.506Z,31.23
2022-10-31T14:55:56.969Z,32.53
2022-10-31T14:58:38.817Z,31.80
2022-10-31T15:01:06.662Z,27.33
2022-10-31T15:03:39.490Z,23.27
2022-10-31T15:06:14.983Z,26.50
2022-10-31T15:08:47.304Z,26.90
2022-10-31T15:11:18.397Z,25.63
2022-10-31T15:13:53.100Z,20.73
2022-10-31T15:16:36.276Z,33.13
2022-10-31T15:19:11.783Z,30.83
2022-10-31T15:21:44.809Z,36.28
2022-10-31T15:24:16.969Z,37.00
2022-10-31T15:26:51.502Z,27.60
2022-10-31T15:29:24.275Z,30.08
2022-10-31T15:31:57.606Z,37.85
2022-10-31T15:34:42.024Z,45.33
2022-10-31T15:37:21.331Z,36.42
2022-10-31T15:39:50.397Z,32.72
2022-10-31T15:42:31.949Z,34.72
2022-10-31T15:45:04.090Z,26.95
2022-10-31T15:47:34.603Z,26.73
2022-10-31T15:53:15.403Z,32.10
2022-10-31T15:55:50.252Z,41.90
2022-10-31T15:58:19.990Z,27.17
2022-10-31T16:00:59.432Z,40.90
2022-10-31T16:03:31.939Z,37.20
2022-10-31T16:06:04.943Z,47.72
2022-10-31T16:08:31.891Z,28.50
2022-10-31T16:11:08.155Z,44.35
2022-10-31T16:13:38.483Z,41.47
2022-10-31T16:19:02.306Z,40.50
2022-10-31T16:21:36.691Z,35.88
2022-10-31T16:24:30.971Z,36.30
2022-10-31T16:27:06.425Z,40.53
2022-10-31T16:29:44.629Z,36.20
2022-10-31T16:32:25.224Z,44.95
2022-10-31T16:35:18.265Z,39.38
2022-10-31T16:37:45.580Z,33.05
2022-10-31T16:40:14.441Z,35.42
2022-10-31T16:42:43.381Z,50.80
2022-10-31T16:45:18.974Z,59.25
2022-10-31T16:47:47.495Z,49.72
2022-10-31T16:50:22.153Z,45.20
2022-10-31T16:55:45.998Z,43.20
2022-10-31T16:58:20.241Z,39.90
2022-10-31T17:00:47.877Z,27.48
2022-10-31T17:03:15.099Z,37.08
2022-10-31T17:05:42.755Z,42.17
2022-10-31T17:08:09.695Z,37.88
2022-10-31T17:10:37.602Z,36.15
2022-10-31T17:13:07.370Z,67.22
2022-10-31T17:15:42.294Z,61.70
2022-10-31T17:18:13.515Z,56.13
2022-10-31T17:20:41.099Z,53.78
2022-10-31T17:23:11.109Z,53.60
2022-10-31T17:25:40.452Z,51.33
2022-10-31T17:28:08.070Z,51.17
2022-10-31T17:30:36.771Z,42.05
2022-10-31T17:33:04.201Z,30.05
2022-10-31T17:35:31.209Z,37.30
2022-10-31T17:37:58.218Z,43.83
2022-10-31T17:40:25.161Z,39.70
2022-10-31T17:42:54.565Z,41.75
2022-10-31T17:45:22.825Z,43.95
2022-10-31T17:47:51.608Z,41.50
2022-10-31T17:50:21.091Z,40.83
2022-10-31T17:52:49.236Z,39.78
2022-10-31T17:55:17.442Z,40.30
2022-10-31T17:57:44.852Z,49.40
2022-10-31T18:00:14.960Z,44.83
2022-10-31T18:02:42.125Z,42.55
2022-10-31T18:05:09.534Z,44.33
2022-10-31T18:07:36.542Z,46.33
2022-10-31T18:10:03.655Z,46.28
2022-10-31T18:12:32.480Z,42.85
2022-10-31T18:14:59.454Z,34.22
2022-10-31T18:17:26.739Z,40.83
2022-10-31T18:19:53.754Z,37.75
2022-10-31T18:22:20.689Z,42.72
2022-10-31T18:24:47.617Z,35.90
2022-10-31T18:27:14.552Z,40.20
2022-10-31T18:29:41.557Z,34.58
2022-10-31T18:32:09.817Z,42.15
2022-10-31T18:34:36.989Z,39.53
2022-10-31T18:37:03.997Z,35.72
2022-10-31T18:39:31.092Z,37.92
2022-10-31T18:41:58.318Z,50.42
2022-10-31T18:44:25.912Z,43.28
2022-10-31T18:46:52.897Z,40.53
2022-10-31T18:49:22.755Z,44.83
2022-10-31T18:51:53.098Z,46.50
2022-10-31T18:54:20.134Z,53.28
2022-10-31T18:56:47.185Z,48.08
2022-10-31T18:59:14.204Z,58.05
2022-10-31T19:01:41.306Z,57.47
2022-10-31T19:04:10.756Z,43.70
2022-10-31T19:06:37.729Z,47.08
2022-10-31T19:09:10.341Z,53.80
2022-10-31T19:11:38.891Z,48.97
2022-10-31T19:14:08.506Z,41.13
2022-10-31T19:16:37.793Z,32.95
2022-10-31T19:19:05.182Z,41.95
2022-10-31T19:21:32.612Z,40.95
2022-10-31T19:24:00.944Z,51.22
2022-10-31T19:26:28.904Z,33.25
2022-10-31T19:28:56.512Z,38.45
2022-10-31T19:31:24.515Z,36.05
2022-10-31T19:33:51.899Z,38.85
2022-10-31T19:36:20.366Z,25.55
2022-10-31T19:38:49.986Z,32.28
2022-10-31T19:41:21.292Z,43.22
2022-10-31T19:43:51.000Z,45.28
2022-10-31T19:46:33.545Z,45.90
2022-10-31T19:49:06.523Z,33.83
2022-10-31T19:51:33.458Z,42.33
2022-10-31T19:54:00.386Z,46.60
2022-10-31T19:56:27.438Z,49.95
2022-10-31T19:58:54.392Z,48.65
2022-10-31T20:01:24.121Z,51.20
2022-10-31T20:03:51.965Z,87.32
2022-10-31T20:06:31.762Z,68.53
2022-10-31T20:09:01.907Z,57.17
2022-10-31T20:11:29.309Z,46.92
2022-10-31T20:13:59.060Z,73.28
2022-10-31T20:16:27.460Z,90.28
2022-10-31T20:18:55.609Z,60.60
2022-10-31T20:21:26.734Z,62.00
2022-10-31T20:24:02.158Z,59.78
2022-10-31T20:26:31.230Z,55.63
2022-10-31T20:28:59.908Z,72.63
2022-10-31T20:31:29.873Z,63.30
2022-10-31T20:33:57.425Z,38.63
2022-10-31T20:36:24.681Z,36.45
2022-10-31T20:38:52.453Z,48.40
2022-10-31T20:41:20.897Z,67.05
2022-10-31T20:43:47.994Z,73.85
2022-10-31T20:46:18.520Z,76.38
2022-10-31T20:48:46.671Z,61.90
2022-10-31T20:53:49.811Z,80.20
2022-10-31T20:56:19.661Z,45.33
2022-10-31T20:58:48.790Z,66.88
2022-10-31T21:01:16.987Z,62.58
2022-10-31T21:03:44.790Z,61.00
2022-10-31T21:06:13.547Z,75.07
2022-10-31T21:08:41.960Z,97.60
2022-10-31T21:11:16.052Z,100.28
2022-10-31T21:13:45.321Z,47.53
2022-10-31T21:16:19.232Z,44.67
2022-10-31T21:18:47.629Z,30.77
2022-10-31T21:21:29.030Z,28.88
2022-10-31T21:24:05.626Z,38.35
2022-10-31T21:26:36.872Z,35.20
2022-10-31T21:29:05.832Z,45.35
2022-10-31T21:31:33.227Z,43.72
2022-10-31T21:34:00.621Z,42.15
2022-10-31T21:36:27.748Z,39.20
2022-10-31T21:38:56.134Z,34.95
2022-10-31T21:41:24.969Z,40.67
2022-10-31T21:43:54.447Z,35.15
2022-10-31T21:46:24.797Z,42.67
2022-10-31T21:48:53.267Z,41.58
2022-10-31T21:51:21.192Z,32.70
2022-10-31T21:54:08.180Z,42.22
2022-10-31T21:56:36.017Z,38.05
2022-10-31T21:59:03.375Z,37.17
2022-10-31T22:01:32.142Z,37.15
2022-10-31T22:03:59.846Z,38.92
2022-10-31T22:06:30.283Z,47.63
2022-10-31T22:09:02.543Z,41.38
2022-10-31T22:11:30.245Z,50.38
2022-10-31T22:13:59.627Z,53.95
2022-10-31T22:16:29.279Z,56.22
2022-10-31T22:18:58.710Z,50.30
2022-10-31T22:21:28.471Z,48.85
2022-10-31T22:24:01.843Z,56.40
2022-10-31T22:26:33.913Z,42.15
2022-10-31T22:29:04.188Z,58.53
2022-10-31T22:31:32.870Z,53.97
2022-10-31T22:34:00.388Z,55.42
2022-10-31T22:36:29.973Z,40.72
2022-10-31T22:38:58.210Z,43.75
2022-10-31T22:41:27.371Z,47.53
2022-10-31T22:43:55.960Z,54.17
2022-10-31T22:46:26.020Z,40.90
2022-10-31T22:48:56.755Z,41.97
2022-10-31T22:51:25.391Z,52.75
2022-10-31T22:53:52.836Z,55.78
2022-10-31T22:56:21.695Z,37.42
2022-10-31T22:58:49.479Z,34.40
2022-10-31T23:01:19.379Z,52.40
2022-10-31T23:03:47.152Z,50.33
2022-10-31T23:06:19.790Z,71.95
2022-10-31T23:08:47.553Z,99.55
2022-10-31T23:11:44.111Z,93.15
2022-10-31T23:14:15.817Z,72.63
2022-10-31T23:16:55.768Z,105.20
2022-10-31T23:19:28.713Z,93.43
2022-10-31T23:22:03.148Z,81.97
2022-10-31T23:24:37.873Z,98.63
2022-10-31T23:27:17.024Z,80.38
2022-10-31T23:29:53.544Z,39.22
2022-10-31T23:32:21.952Z,28.75
2022-10-31T23:34:51.080Z,40.58
2022-10-31T23:37:19.399Z,40.42
2022-10-31T23:39:47.536Z,25.80
2022-10-31T23:42:18.441Z,35.95
2022-10-31T23:44:46.186Z,41.50
2022-10-31T23:47:13.700Z,47.15
2022-10-31T23:49:40.676Z,35.92
2022-10-31T23:52:08.573Z,41.33
2022-10-31T23:54:35.838Z,41.50
2022-10-31T23:57:03.628Z,46.35
2022-10-31T23:59:30.613Z,32.20
